Varna — LZFZ — position and weather

sailwx.info

Track history (hours):
 
Tides and Currents Weather Stations Pressure Air Temp Water Temp Dewpoint Dewpoint Depression Visibility Wind Speed Wind Dir Waves Ship Positions

Varna

Last reported at 2017-Oct-21 11:55 UTC. Time now 2017-Oct-22 17:50 UTC.
Position N 45°07' E 036°29'.

Length 140 m; draft 3.3 m.

Type: Cargo ship. MMSI: 20713600.

Date/timePositionNaut miles runAvg speedWind from/ knotsBaromVisibWave heightAir tempDewpointWater temp
2017-Oct-21 11:55N 45°07' E 036°29'3 8.0
2017-Oct-21 11:30N 45°10' E 036°28'4 7.7
2017-Oct-21 11:00N 45°14' E 036°28'2 4.1
2017-Oct-21 10:30N 45°16' E 036°28'2 3.6
2017-Oct-21 10:00N 45°18' E 036°29'3 6.7
2017-Oct-21 09:31N 45°19' E 036°33'4 7.3
2017-Oct-21 09:00N 45°21' E 036°38'2 4.6
2017-Oct-21 08:30N 45°22' E 036°41'0 0.5
2017-Oct-21 08:00N 45°22' E 036°41'0 0.0
2017-Oct-21 07:30N 45°22' E 036°41'0 0.0
2017-Oct-21 06:57N 45°22' E 036°41'0 0.0
2017-Oct-21 06:30N 45°22' E 036°41'0 0.0
2017-Oct-21 06:00N 45°22' E 036°41'0 0.0
2017-Oct-21 05:30N 45°22' E 036°41'0 0.0
2017-Oct-21 05:00N 45°22' E 036°41'0 0.0
2017-Oct-21 04:30N 45°22' E 036°41'0 0.0
2017-Oct-21 04:00N 45°22' E 036°41'0 0.0
2017-Oct-21 03:30N 45°22' E 036°41'0 0.0
2017-Oct-21 03:00N 45°22' E 036°41'0 0.0
2017-Oct-21 02:30N 45°22' E 036°41'0 0.1
2017-Oct-21 02:00N 45°22' E 036°41'2 3.4
2017-Oct-21 01:30N 45°20' E 036°40'0 0.2
2017-Oct-21 01:00N 45°20' E 036°40'0 0.0
2017-Oct-21 00:30N 45°20' E 036°40'0 0.0
2017-Oct-21 00:00N 45°20' E 036°40'0 0.0
2017-Oct-20 23:30N 45°20' E 036°40'0 0.0
2017-Oct-20 22:57N 45°20' E 036°40'0 0.0
2017-Oct-20 22:30N 45°20' E 036°40'0 0.0
2017-Oct-20 22:00N 45°20' E 036°40'0 0.0
2017-Oct-20 21:30N 45°20' E 036°40'0 0.0
2017-Oct-20 21:00N 45°20' E 036°40'0 0.0
2017-Oct-20 20:30N 45°20' E 036°40'0 0.0
2017-Oct-20 20:00N 45°20' E 036°40'0 0.0
2017-Oct-20 19:30N 45°20' E 036°40'0 0.0
2017-Oct-20 19:00N 45°20' E 036°40'0 0.0
2017-Oct-20 18:30N 45°20' E 036°40'0 0.0
2017-Oct-20 18:00N 45°20' E 036°40'0 0.0
2017-Oct-20 17:30N 45°20' E 036°40'0 0.0
2017-Oct-20 17:00N 45°20' E 036°40'0 0.0
2017-Oct-20 16:30N 45°20' E 036°40'0 0.0
2017-Oct-20 16:00N 45°20' E 036°40'0 0.0
2017-Oct-20 15:30N 45°20' E 036°40'0 0.0
2017-Oct-20 15:00N 45°20' E 036°40'0 0.0
2017-Oct-20 14:30N 45°20' E 036°40'0 0.0
2017-Oct-20 13:30N 45°20' E 036°40'0 0.2
2017-Oct-20 13:00N 45°20' E 036°40'2 3.0
2017-Oct-20 12:30N 45°22' E 036°40'1 1.5
2017-Oct-20 12:00N 45°22' E 036°41'0 0.0
2017-Oct-20 11:30N 45°22' E 036°41'0 0.0
2017-Oct-20 11:00N 45°22' E 036°41'0 0.0
2017-Oct-20 10:30N 45°22' E 036°41'0 0.0
2017-Oct-20 10:00N 45°22' E 036°41'0 0.0
2017-Oct-20 09:30N 45°22' E 036°41'0 0.0
2017-Oct-20 09:00N 45°22' E 036°41'0 0.0
2017-Oct-20 08:30N 45°22' E 036°41'0 0.0
2017-Oct-20 08:00N 45°22' E 036°41'0 0.0
2017-Oct-20 07:30N 45°22' E 036°41'0 0.0
2017-Oct-20 07:00N 45°22' E 036°41'0 0.0
2017-Oct-20 06:30N 45°22' E 036°41'0 0.0
2017-Oct-20 06:00N 45°22' E 036°41'0 0.0
2017-Oct-20 05:30N 45°22' E 036°41'0 0.0
2017-Oct-20 05:00N 45°22' E 036°41'0 0.0
2017-Oct-20 04:30N 45°22' E 036°41'0 0.0
2017-Oct-20 04:00N 45°22' E 036°41'0 0.0
2017-Oct-20 03:30N 45°22' E 036°41'1 1.7
2017-Oct-20 03:01N 45°22' E 036°40'4 8.0
2017-Oct-20 02:31N 45°20' E 036°35'4 8.6
2017-Oct-20 02:00N 45°18' E 036°30'4 7.2
2017-Oct-20 01:30N 45°15' E 036°29'3 5.4
2017-Oct-20 01:00N 45°12' E 036°29'2 0.5
2017-Oct-19 21:52N 45°11' E 036°31'0 0.0
2017-Oct-19 20:12N 45°11' E 036°31'0 0.0
2017-Oct-19 20:00N 45°11' E 036°31'0 0.0
2017-Oct-19 19:31N 45°11' E 036°31'0 0.0
2017-Oct-19 18:13N 45°11' E 036°31'0 0.1
2017-Oct-19 18:00N 45°11' E 036°31'0 0.3
2017-Oct-19 17:28N 45°11' E 036°31'301 7.7
2017-Oct-18 02:10N 43°31' E 029°54'1 8.4
2017-Oct-18 02:00N 43°30' E 029°52'4 8.4
2017-Oct-18 01:30N 43°30' E 029°46'4 8.4
2017-Oct-18 01:00N 43°29' E 029°40'6 8.4
2017-Oct-18 00:21N 43°28' E 029°33'3 8.4
2017-Oct-18 00:00N 43°27' E 029°29'4 8.5
2017-Oct-17 23:30N 43°26' E 029°23'4 8.6
2017-Oct-17 23:00N 43°25' E 029°18'5 8.6
2017-Oct-17 22:29N 43°24' E 029°12'4 8.7
2017-Oct-17 22:00N 43°23' E 029°06'4 8.8
2017-Oct-17 21:30N 43°22' E 029°00'5 9.0
2017-Oct-17 21:00N 43°21' E 028°54'4 9.0
2017-Oct-17 20:30N 43°20' E 028°48'11 0.2
2017-Oct-15 21:46N 43°25' E 029°02'4 8.1
2017-Oct-15 21:16N 43°26' E 029°07'6 8.2
2017-Oct-15 20:29N 43°28' E 029°16'24 7.9
2017-Oct-15 17:25N 43°35' E 029°48'4 8.0
2017-Oct-15 16:58N 43°36' E 029°53'298 7.5
2017-Oct-14 01:16N 45°09' E 036°28'2 7.8
2017-Oct-14 00:59N 45°11' E 036°28'4 7.4
2017-Oct-14 00:30N 45°15' E 036°28'3 6.5
2017-Oct-14 00:00N 45°18' E 036°29'3 6.7
2017-Oct-13 23:30N 45°19' E 036°33'3 6.6
2017-Oct-13 23:00N 45°21' E 036°38'3 5.8
2017-Oct-13 22:30N 45°23' E 036°40'1 2.1
2017-Oct-13 21:59N 45°23' E 036°41'0 0.1
2017-Oct-13 21:26N 45°23' E 036°41'0 0.0
2017-Oct-13 20:59N 45°23' E 036°41'0 0.0
2017-Oct-13 20:29N 45°23' E 036°41'0 0.0
2017-Oct-13 19:59N 45°23' E 036°41'0 0.0
2017-Oct-13 19:29N 45°23' E 036°41'0 0.0
2017-Oct-13 18:59N 45°23' E 036°41'0 0.0
2017-Oct-13 18:29N 45°23' E 036°41'0 0.0
2017-Oct-13 17:59N 45°23' E 036°41'0 0.0
2017-Oct-13 17:29N 45°23' E 036°41'0 0.0
2017-Oct-13 16:59N 45°23' E 036°41'0 0.0
2017-Oct-13 16:29N 45°23' E 036°41'0 0.0
2017-Oct-13 15:59N 45°23' E 036°41'0 0.0
2017-Oct-13 15:29N 45°23' E 036°41'0 0.0
2017-Oct-13 14:59N 45°23' E 036°41'0 0.0
2017-Oct-13 14:29N 45°23' E 036°41'0 0.0
2017-Oct-13 13:59N 45°23' E 036°41'0 0.0
2017-Oct-13 13:29N 45°23' E 036°41'0 0.0
2017-Oct-13 12:59N 45°23' E 036°41'0 0.0
2017-Oct-13 12:29N 45°23' E 036°41'0 0.0
2017-Oct-13 11:59N 45°23' E 036°41'0 0.0
2017-Oct-13 11:29N 45°23' E 036°41'0 0.0
2017-Oct-13 10:59N 45°23' E 036°41'0 0.0
2017-Oct-13 10:29N 45°23' E 036°41'0 0.0
2017-Oct-13 09:59N 45°23' E 036°41'0 0.0
2017-Oct-13 09:29N 45°23' E 036°41'0 0.0
2017-Oct-13 08:59N 45°23' E 036°41'0 0.0
2017-Oct-13 08:29N 45°23' E 036°41'0 0.0
2017-Oct-13 07:59N 45°23' E 036°41'0 0.0
2017-Oct-13 07:29N 45°23' E 036°41'0 0.0
2017-Oct-13 06:59N 45°23' E 036°41'0 0.0
2017-Oct-13 06:29N 45°23' E 036°41'0 0.0
2017-Oct-13 05:59N 45°23' E 036°41'0 0.0
2017-Oct-13 05:29N 45°23' E 036°41'0 0.0
2017-Oct-13 04:59N 45°23' E 036°41'0 0.0
2017-Oct-13 04:29N 45°23' E 036°41'0 0.0
2017-Oct-13 03:59N 45°23' E 036°41'0 0.0
2017-Oct-13 03:29N 45°23' E 036°41'0 0.0
2017-Oct-13 02:59N 45°23' E 036°41'0 0.0
2017-Oct-13 02:29N 45°23' E 036°41'0 0.0
2017-Oct-13 01:59N 45°23' E 036°41'0 0.0
2017-Oct-13 01:29N 45°23' E 036°41'0 0.0
2017-Oct-13 00:59N 45°23' E 036°41'0 0.0
2017-Oct-13 00:29N 45°23' E 036°41'0 0.0
2017-Oct-12 23:59N 45°23' E 036°41'0 0.0
2017-Oct-12 23:29N 45°23' E 036°41'0 0.0
2017-Oct-12 22:59N 45°23' E 036°41'0 0.0
2017-Oct-12 22:29N 45°23' E 036°41'0 0.0
2017-Oct-12 21:59N 45°23' E 036°41'0 0.0
2017-Oct-12 21:29N 45°23' E 036°41'0 0.0
2017-Oct-12 20:59N 45°23' E 036°41'0 0.0
2017-Oct-12 20:29N 45°23' E 036°41'0 0.0
2017-Oct-12 19:59N 45°23' E 036°41'0 0.0
2017-Oct-12 19:29N 45°23' E 036°41'0 0.0
2017-Oct-12 18:59N 45°23' E 036°41'0 0.0
2017-Oct-12 18:29N 45°23' E 036°41'0 0.0
2017-Oct-12 17:59N 45°23' E 036°41'0 0.0
2017-Oct-12 17:29N 45°23' E 036°41'0 0.0
2017-Oct-12 16:59N 45°23' E 036°41'0 0.0
2017-Oct-12 16:29N 45°23' E 036°41'0 0.0
2017-Oct-12 15:59N 45°23' E 036°41'0 0.0
2017-Oct-12 15:29N 45°23' E 036°41'0 0.0
2017-Oct-12 14:59N 45°23' E 036°41'0 0.0
2017-Oct-12 14:29N 45°23' E 036°41'0 0.0
2017-Oct-12 13:59N 45°23' E 036°41'0 0.0
2017-Oct-12 13:29N 45°23' E 036°41'0 0.0
2017-Oct-12 12:59N 45°23' E 036°41'0 0.0
2017-Oct-12 12:29N 45°23' E 036°41'0 0.0
2017-Oct-12 11:53N 45°23' E 036°41'0 0.0
2017-Oct-12 11:29N 45°23' E 036°41'0 0.0
2017-Oct-12 10:59N 45°23' E 036°41'0 0.0
2017-Oct-12 10:29N 45°23' E 036°41'0 0.0
2017-Oct-12 09:59N 45°23' E 036°41'0 0.0
2017-Oct-12 09:29N 45°23' E 036°41'0 0.0
2017-Oct-12 08:59N 45°23' E 036°41'0 0.0
2017-Oct-12 08:29N 45°23' E 036°41'0 0.0
2017-Oct-12 07:59N 45°23' E 036°41'0 0.0
2017-Oct-12 07:29N 45°23' E 036°41'0 0.0
2017-Oct-12 06:59N 45°23' E 036°41'0 0.0
2017-Oct-12 06:29N 45°23' E 036°41'0 0.0
2017-Oct-12 05:59N 45°23' E 036°41'0 0.0
2017-Oct-12 05:29N 45°23' E 036°41'0 0.0
2017-Oct-12 04:59N 45°23' E 036°41'0 0.0
2017-Oct-12 04:29N 45°23' E 036°41'0 0.0
2017-Oct-12 03:59N 45°23' E 036°41'0 0.0
2017-Oct-12 03:29N 45°23' E 036°41'0 0.0
2017-Oct-12 02:59N 45°23' E 036°41'0 0.0
2017-Oct-12 02:29N 45°23' E 036°41'0 0.0
2017-Oct-12 01:59N 45°23' E 036°41'0 0.0
2017-Oct-12 01:29N 45°23' E 036°41'0 0.0
2017-Oct-12 00:59N 45°23' E 036°41'0 0.0
2017-Oct-12 00:29N 45°23' E 036°41'0 0.0
2017-Oct-11 23:56N 45°23' E 036°41'0 0.0
2017-Oct-11 23:29N 45°23' E 036°41'0 0.0
2017-Oct-11 22:56N 45°23' E 036°41'0 0.0
2017-Oct-11 22:29N 45°23' E 036°41'0 0.0
2017-Oct-11 21:59N 45°23' E 036°41'0 0.0
2017-Oct-11 21:29N 45°23' E 036°41'0 0.0
2017-Oct-11 20:59N 45°23' E 036°41'0 0.0
2017-Oct-11 20:29N 45°23' E 036°41'0 0.0
2017-Oct-11 19:56N 45°23' E 036°41'0 0.0
2017-Oct-11 19:29N 45°23' E 036°41'0 0.0
2017-Oct-11 18:59N 45°23' E 036°41'0 0.0
2017-Oct-11 18:29N 45°23' E 036°41'0 0.0
2017-Oct-11 17:59N 45°23' E 036°41'0 0.0
2017-Oct-11 17:29N 45°23' E 036°41'0 0.0
2017-Oct-11 16:59N 45°23' E 036°41'  
Track history (hours):
 
Tides and Currents Weather Stations Pressure Air Temp Water Temp Dewpoint Dewpoint Depression Visibility Wind Speed Wind Dir Waves Ship Positions

Varna

Last reported at 2017-Oct-21 11:55 UTC. Time now 2017-Oct-22 17:50 UTC.
Position N 45°07' E 036°29'.

Length 140 m; draft 3.3 m.

Type: Cargo ship. MMSI: 20713600.

Date/timePositionNaut miles runAvg speedWind from/ knotsBaromVisibWave heightAir tempDewpointWater temp
2017-Oct-21 11:55N 45°07' E 036°29'3 8.0
2017-Oct-21 11:30N 45°10' E 036°28'4 7.7
2017-Oct-21 11:00N 45°14' E 036°28'2 4.1
2017-Oct-21 10:30N 45°16' E 036°28'2 3.6
2017-Oct-21 10:00N 45°18' E 036°29'3 6.7
2017-Oct-21 09:31N 45°19' E 036°33'4 7.3
2017-Oct-21 09:00N 45°21' E 036°38'2 4.6
2017-Oct-21 08:30N 45°22' E 036°41'0 0.5
2017-Oct-21 08:00N 45°22' E 036°41'0 0.0
2017-Oct-21 07:30N 45°22' E 036°41'0 0.0
2017-Oct-21 06:57N 45°22' E 036°41'0 0.0
2017-Oct-21 06:30N 45°22' E 036°41'0 0.0
2017-Oct-21 06:00N 45°22' E 036°41'0 0.0
2017-Oct-21 05:30N 45°22' E 036°41'0 0.0
2017-Oct-21 05:00N 45°22' E 036°41'0 0.0
2017-Oct-21 04:30N 45°22' E 036°41'0 0.0
2017-Oct-21 04:00N 45°22' E 036°41'0 0.0
2017-Oct-21 03:30N 45°22' E 036°41'0 0.0
2017-Oct-21 03:00N 45°22' E 036°41'0 0.0
2017-Oct-21 02:30N 45°22' E 036°41'0 0.1
2017-Oct-21 02:00N 45°22' E 036°41'2 3.4
2017-Oct-21 01:30N 45°20' E 036°40'0 0.2
2017-Oct-21 01:00N 45°20' E 036°40'0 0.0
2017-Oct-21 00:30N 45°20' E 036°40'0 0.0
2017-Oct-21 00:00N 45°20' E 036°40'0 0.0
2017-Oct-20 23:30N 45°20' E 036°40'0 0.0
2017-Oct-20 22:57N 45°20' E 036°40'0 0.0
2017-Oct-20 22:30N 45°20' E 036°40'0 0.0
2017-Oct-20 22:00N 45°20' E 036°40'0 0.0
2017-Oct-20 21:30N 45°20' E 036°40'0 0.0
2017-Oct-20 21:00N 45°20' E 036°40'0 0.0
2017-Oct-20 20:30N 45°20' E 036°40'0 0.0
2017-Oct-20 20:00N 45°20' E 036°40'0 0.0
2017-Oct-20 19:30N 45°20' E 036°40'0 0.0
2017-Oct-20 19:00N 45°20' E 036°40'0 0.0
2017-Oct-20 18:30N 45°20' E 036°40'0 0.0
2017-Oct-20 18:00N 45°20' E 036°40'0 0.0
2017-Oct-20 17:30N 45°20' E 036°40'0 0.0
2017-Oct-20 17:00N 45°20' E 036°40'0 0.0
2017-Oct-20 16:30N 45°20' E 036°40'0 0.0
2017-Oct-20 16:00N 45°20' E 036°40'0 0.0
2017-Oct-20 15:30N 45°20' E 036°40'0 0.0
2017-Oct-20 15:00N 45°20' E 036°40'0 0.0
2017-Oct-20 14:30N 45°20' E 036°40'0 0.0
2017-Oct-20 13:30N 45°20' E 036°40'0 0.2
2017-Oct-20 13:00N 45°20' E 036°40'2 3.0
2017-Oct-20 12:30N 45°22' E 036°40'1 1.5
2017-Oct-20 12:00N 45°22' E 036°41'0 0.0
2017-Oct-20 11:30N 45°22' E 036°41'0 0.0
2017-Oct-20 11:00N 45°22' E 036°41'0 0.0
2017-Oct-20 10:30N 45°22' E 036°41'0 0.0
2017-Oct-20 10:00N 45°22' E 036°41'0 0.0
2017-Oct-20 09:30N 45°22' E 036°41'0 0.0
2017-Oct-20 09:00N 45°22' E 036°41'0 0.0
2017-Oct-20 08:30N 45°22' E 036°41'0 0.0
2017-Oct-20 08:00N 45°22' E 036°41'0 0.0
2017-Oct-20 07:30N 45°22' E 036°41'0 0.0
2017-Oct-20 07:00N 45°22' E 036°41'0 0.0
2017-Oct-20 06:30N 45°22' E 036°41'0 0.0
2017-Oct-20 06:00N 45°22' E 036°41'0 0.0
2017-Oct-20 05:30N 45°22' E 036°41'0 0.0
2017-Oct-20 05:00N 45°22' E 036°41'0 0.0
2017-Oct-20 04:30N 45°22' E 036°41'0 0.0
2017-Oct-20 04:00N 45°22' E 036°41'0 0.0
2017-Oct-20 03:30N 45°22' E 036°41'1 1.7
2017-Oct-20 03:01N 45°22' E 036°40'4 8.0
2017-Oct-20 02:31N 45°20' E 036°35'4 8.6
2017-Oct-20 02:00N 45°18' E 036°30'4 7.2
2017-Oct-20 01:30N 45°15' E 036°29'3 5.4
2017-Oct-20 01:00N 45°12' E 036°29'2 0.5
2017-Oct-19 21:52N 45°11' E 036°31'0 0.0
2017-Oct-19 20:12N 45°11' E 036°31'0 0.0
2017-Oct-19 20:00N 45°11' E 036°31'0 0.0
2017-Oct-19 19:31N 45°11' E 036°31'0 0.0
2017-Oct-19 18:13N 45°11' E 036°31'0 0.1
2017-Oct-19 18:00N 45°11' E 036°31'0 0.3
2017-Oct-19 17:28N 45°11' E 036°31'301 7.7
2017-Oct-18 02:10N 43°31' E 029°54'1 8.4
2017-Oct-18 02:00N 43°30' E 029°52'4 8.4
2017-Oct-18 01:30N 43°30' E 029°46'4 8.4
2017-Oct-18 01:00N 43°29' E 029°40'6 8.4
2017-Oct-18 00:21N 43°28' E 029°33'3 8.4
2017-Oct-18 00:00N 43°27' E 029°29'4 8.5
2017-Oct-17 23:30N 43°26' E 029°23'4 8.6
2017-Oct-17 23:00N 43°25' E 029°18'5 8.6
2017-Oct-17 22:29N 43°24' E 029°12'4 8.7
2017-Oct-17 22:00N 43°23' E 029°06'4 8.8
2017-Oct-17 21:30N 43°22' E 029°00'5 9.0
2017-Oct-17 21:00N 43°21' E 028°54'4 9.0
2017-Oct-17 20:30N 43°20' E 028°48'11 0.2
2017-Oct-15 21:46N 43°25' E 029°02'4 8.1
2017-Oct-15 21:16N 43°26' E 029°07'6 8.2
2017-Oct-15 20:29N 43°28' E 029°16'24 7.9
2017-Oct-15 17:25N 43°35' E 029°48'4 8.0
2017-Oct-15 16:58N 43°36' E 029°53'298 7.5
2017-Oct-14 01:16N 45°09' E 036°28'2 7.8
2017-Oct-14 00:59N 45°11' E 036°28'4 7.4
2017-Oct-14 00:30N 45°15' E 036°28'3 6.5
2017-Oct-14 00:00N 45°18' E 036°29'3 6.7
2017-Oct-13 23:30N 45°19' E 036°33'3 6.6
2017-Oct-13 23:00N 45°21' E 036°38'3 5.8
2017-Oct-13 22:30N 45°23' E 036°40'1 2.1
2017-Oct-13 21:59N 45°23' E 036°41'0 0.1
2017-Oct-13 21:26N 45°23' E 036°41'0 0.0
2017-Oct-13 20:59N 45°23' E 036°41'0 0.0
2017-Oct-13 20:29N 45°23' E 036°41'0 0.0
2017-Oct-13 19:59N 45°23' E 036°41'0 0.0
2017-Oct-13 19:29N 45°23' E 036°41'0 0.0
2017-Oct-13 18:59N 45°23' E 036°41'0 0.0
2017-Oct-13 18:29N 45°23' E 036°41'0 0.0
2017-Oct-13 17:59N 45°23' E 036°41'0 0.0
2017-Oct-13 17:29N 45°23' E 036°41'0 0.0
2017-Oct-13 16:59N 45°23' E 036°41'0 0.0
2017-Oct-13 16:29N 45°23' E 036°41'0 0.0
2017-Oct-13 15:59N 45°23' E 036°41'0 0.0
2017-Oct-13 15:29N 45°23' E 036°41'0 0.0
2017-Oct-13 14:59N 45°23' E 036°41'0 0.0
2017-Oct-13 14:29N 45°23' E 036°41'0 0.0
2017-Oct-13 13:59N 45°23' E 036°41'0 0.0
2017-Oct-13 13:29N 45°23' E 036°41'0 0.0
2017-Oct-13 12:59N 45°23' E 036°41'0 0.0
2017-Oct-13 12:29N 45°23' E 036°41'0 0.0
2017-Oct-13 11:59N 45°23' E 036°41'0 0.0
2017-Oct-13 11:29N 45°23' E 036°41'0 0.0
2017-Oct-13 10:59N 45°23' E 036°41'0 0.0
2017-Oct-13 10:29N 45°23' E 036°41'0 0.0
2017-Oct-13 09:59N 45°23' E 036°41'0 0.0
2017-Oct-13 09:29N 45°23' E 036°41'0 0.0
2017-Oct-13 08:59N 45°23' E 036°41'0 0.0
2017-Oct-13 08:29N 45°23' E 036°41'0 0.0
2017-Oct-13 07:59N 45°23' E 036°41'0 0.0
2017-Oct-13 07:29N 45°23' E 036°41'0 0.0
2017-Oct-13 06:59N 45°23' E 036°41'0 0.0
2017-Oct-13 06:29N 45°23' E 036°41'0 0.0
2017-Oct-13 05:59N 45°23' E 036°41'0 0.0
2017-Oct-13 05:29N 45°23' E 036°41'0 0.0
2017-Oct-13 04:59N 45°23' E 036°41'0 0.0
2017-Oct-13 04:29N 45°23' E 036°41'0 0.0
2017-Oct-13 03:59N 45°23' E 036°41'0 0.0
2017-Oct-13 03:29N 45°23' E 036°41'0 0.0
2017-Oct-13 02:59N 45°23' E 036°41'0 0.0
2017-Oct-13 02:29N 45°23' E 036°41'0 0.0
2017-Oct-13 01:59N 45°23' E 036°41'0 0.0
2017-Oct-13 01:29N 45°23' E 036°41'0 0.0
2017-Oct-13 00:59N 45°23' E 036°41'0 0.0
2017-Oct-13 00:29N 45°23' E 036°41'0 0.0
2017-Oct-12 23:59N 45°23' E 036°41'0 0.0
2017-Oct-12 23:29N 45°23' E 036°41'0 0.0
2017-Oct-12 22:59N 45°23' E 036°41'0 0.0
2017-Oct-12 22:29N 45°23' E 036°41'0 0.0
2017-Oct-12 21:59N 45°23' E 036°41'0 0.0
2017-Oct-12 21:29N 45°23' E 036°41'0 0.0
2017-Oct-12 20:59N 45°23' E 036°41'0 0.0
2017-Oct-12 20:29N 45°23' E 036°41'0 0.0
2017-Oct-12 19:59N 45°23' E 036°41'0 0.0
2017-Oct-12 19:29N 45°23' E 036°41'0 0.0
2017-Oct-12 18:59N 45°23' E 036°41'0 0.0
2017-Oct-12 18:29N 45°23' E 036°41'0 0.0
2017-Oct-12 17:59N 45°23' E 036°41'0 0.0
2017-Oct-12 17:29N 45°23' E 036°41'0 0.0
2017-Oct-12 16:59N 45°23' E 036°41'0 0.0
2017-Oct-12 16:29N 45°23' E 036°41'0 0.0
2017-Oct-12 15:59N 45°23' E 036°41'0 0.0
2017-Oct-12 15:29N 45°23' E 036°41'0 0.0
2017-Oct-12 14:59N 45°23' E 036°41'0 0.0
2017-Oct-12 14:29N 45°23' E 036°41'0 0.0
2017-Oct-12 13:59N 45°23' E 036°41'0 0.0
2017-Oct-12 13:29N 45°23' E 036°41'0 0.0
2017-Oct-12 12:59N 45°23' E 036°41'0 0.0
2017-Oct-12 12:29N 45°23' E 036°41'0 0.0
2017-Oct-12 11:53N 45°23' E 036°41'0 0.0
2017-Oct-12 11:29N 45°23' E 036°41'0 0.0
2017-Oct-12 10:59N 45°23' E 036°41'0 0.0
2017-Oct-12 10:29N 45°23' E 036°41'0 0.0
2017-Oct-12 09:59N 45°23' E 036°41'0 0.0
2017-Oct-12 09:29N 45°23' E 036°41'0 0.0
2017-Oct-12 08:59N 45°23' E 036°41'0 0.0
2017-Oct-12 08:29N 45°23' E 036°41'0 0.0
2017-Oct-12 07:59N 45°23' E 036°41'0 0.0
2017-Oct-12 07:29N 45°23' E 036°41'0 0.0
2017-Oct-12 06:59N 45°23' E 036°41'0 0.0
2017-Oct-12 06:29N 45°23' E 036°41'0 0.0
2017-Oct-12 05:59N 45°23' E 036°41'0 0.0
2017-Oct-12 05:29N 45°23' E 036°41'0 0.0
2017-Oct-12 04:59N 45°23' E 036°41'0 0.0
2017-Oct-12 04:29N 45°23' E 036°41'0 0.0
2017-Oct-12 03:59N 45°23' E 036°41'0 0.0
2017-Oct-12 03:29N 45°23' E 036°41'0 0.0
2017-Oct-12 02:59N 45°23' E 036°41'0 0.0
2017-Oct-12 02:29N 45°23' E 036°41'0 0.0
2017-Oct-12 01:59N 45°23' E 036°41'0 0.0
2017-Oct-12 01:29N 45°23' E 036°41'0 0.0
2017-Oct-12 00:59N 45°23' E 036°41'0 0.0
2017-Oct-12 00:29N 45°23' E 036°41'0 0.0
2017-Oct-11 23:56N 45°23' E 036°41'0 0.0
2017-Oct-11 23:29N 45°23' E 036°41'0 0.0
2017-Oct-11 22:56N 45°23' E 036°41'0 0.0
2017-Oct-11 22:29N 45°23' E 036°41'0 0.0
2017-Oct-11 21:59N 45°23' E 036°41'0 0.0
2017-Oct-11 21:29N 45°23' E 036°41'0 0.0
2017-Oct-11 20:59N 45°23' E 036°41'0 0.0
2017-Oct-11 20:29N 45°23' E 036°41'0 0.0
2017-Oct-11 19:56N 45°23' E 036°41'0 0.0
2017-Oct-11 19:29N 45°23' E 036°41'0 0.0
2017-Oct-11 18:59N 45°23' E 036°41'0 0.0
2017-Oct-11 18:29N 45°23' E 036°41'0 0.0
2017-Oct-11 17:59N 45°23' E 036°41'0 0.0
2017-Oct-11 17:29N 45°23' E 036°41'0 0.0
2017-Oct-11 16:59N 45°23' E 036°41'  

Dump ship's entire track history